Time;durP1;ratioP1;P1;durP2;ratioP2;P2;SDS_P1;SDS_P2;PMS_P1;PMS_P2;Temp;Humidity;BMP_temperature;BMP_pressure;BME280_temperature;BME280_humidity;BME280_pressure;Samples;Min_cycle;Max_cycle;Signal;HPM_P1;HPM_P2
2023/10/08 00:01:14;;;;;;;48.80;25.05;;;;;;;17.15;100.00;101592.13;4800361;30;20411;-68
2023/10/08 00:03:57;;;;;;;52.35;26.75;;;;;;;17.19;100.00;101584.91;4799424;30;20058;-68
2023/10/08 00:06:27;;;;;;;49.55;26.08;;;;;;;17.21;100.00;101588.19;4800325;30;20043;-68
2023/10/08 00:08:59;;;;;;;46.95;26.25;;;;;;;17.15;100.00;101581.91;4799485;30;20059;-68
2023/10/08 00:11:31;;;;;;;46.78;25.42;;;;;;;17.16;100.00;101583.53;4800063;30;20076;-68
2023/10/08 00:14:01;;;;;;;48.88;25.15;;;;;;;17.06;100.00;101578.19;4800285;30;20071;-68
2023/10/08 00:16:29;;;;;;;50.33;27.48;;;;;;;17.02;100.00;101574.34;4800095;29;20062;-68
2023/10/08 00:19:07;;;;;;;46.95;24.90;;;;;;;16.98;100.00;101570.53;4800101;30;20059;-68
2023/10/08 00:21:37;;;;;;;49.25;26.23;;;;;;;16.88;100.00;101572.34;4784681;30;20035;-68
2023/10/08 00:24:06;;;;;;;51.72;24.42;;;;;;;16.86;100.00;101569.03;4800486;30;20043;-68
2023/10/08 00:26:39;;;;;;;45.85;26.38;;;;;;;16.85;100.00;101567.41;4799863;30;20063;-68
2023/10/08 00:29:43;;;;;;;47.33;26.85;;;;;;;16.88;100.00;101566.81;4800004;29;20079;-68
2023/10/08 00:32:11;;;;;;;54.30;27.70;;;;;;;16.93;100.00;101563.94;4781521;30;20419;-68
2023/10/08 00:34:42;;;;;;;52.67;27.52;;;;;;;16.95;100.00;101568.38;4798976;30;20058;-68
2023/10/08 00:37:14;;;;;;;50.42;26.55;;;;;;;16.81;100.00;101558.03;4784163;30;20051;-68
2023/10/08 00:39:43;;;;;;;49.17;24.60;;;;;;;16.88;100.00;101561.28;4799638;30;20047;-68
2023/10/08 00:42:12;;;;;;;51.72;24.83;;;;;;;16.94;100.00;101562.00;4799781;30;20062;-68
2023/10/08 00:44:54;;;;;;;51.65;26.50;;;;;;;16.92;100.00;101555.97;4799685;30;20518;-68
2023/10/08 00:47:26;;;;;;;51.78;26.30;;;;;;;16.77;100.00;101555.06;4799947;30;20070;-68
2023/10/08 00:50:03;;;;;;;48.72;24.88;;;;;;;16.68;100.00;101543.03;4784071;30;20062;-68
2023/10/08 00:52:39;;;;;;;46.20;24.27;;;;;;;16.71;100.00;101544.41;4783836;30;20056;-68
2023/10/08 00:55:21;;;;;;;47.35;25.05;;;;;;;16.74;100.00;101539.09;4797578;30;20067;-68
2023/10/08 00:57:57;;;;;;;47.08;24.13;;;;;;;16.76;100.00;101539.59;4800171;30;20044;-68
2023/10/08 01:00:33;;;;;;;48.17;25.90;;;;;;;16.68;100.00;101537.53;4799714;30;20047;-68
2023/10/08 01:03:02;;;;;;;46.40;25.38;;;;;;;16.63;100.00;101526.53;4798557;30;20051;-68
2023/10/08 01:06:09;;;;;;;46.50;25.48;;;;;;;16.57;100.00;101527.72;4783412;30;20063;-68
2023/10/08 01:08:36;;;;;;;49.97;25.63;;;;;;;16.49;100.00;101527.28;4797737;30;20526;-68
2023/10/08 01:11:19;;;;;;;44.30;24.65;;;;;;;16.46;100.00;101529.78;4799197;30;20047;-68
2023/10/08 01:13:48;;;;;;;50.05;25.27;;;;;;;16.48;100.00;101522.03;4798307;30;20488;-68
2023/10/08 01:16:18;;;;;;;48.78;24.90;;;;;;;16.46;100.00;101521.50;4799998;29;20064;-68
2023/10/08 01:18:50;;;;;;;48.88;24.63;;;;;;;16.48;100.00;101524.81;4799729;30;20047;-68
2023/10/08 01:21:33;;;;;;;50.05;24.25;;;;;;;16.35;100.00;101513.38;4799563;30;20059;-68
2023/10/08 01:24:05;;;;;;;48.38;25.13;;;;;;;16.33;100.00;101506.50;4783684;30;20048;-68
2023/10/08 01:26:34;;;;;;;50.38;25.25;;;;;;;16.28;100.00;101512.09;4799014;29;20071;-68
2023/10/08 01:29:03;;;;;;;49.67;25.25;;;;;;;16.23;100.00;101507.47;4801009;30;20064;-68
2023/10/08 01:31:31;;;;;;;43.03;23.33;;;;;;;16.23;100.00;101508.25;4802573;30;20070;-68
2023/10/08 01:34:00;;;;;;;42.63;23.00;;;;;;;16.20;100.00;101510.78;4802721;30;20043;-68
2023/10/08 01:36:31;;;;;;;43.75;23.45;;;;;;;16.10;100.00;101509.81;4802244;30;20055;-68
2023/10/08 01:39:01;;;;;;;46.92;24.10;;;;;;;16.13;100.00;101505.63;4802272;30;20062;-68
2023/10/08 01:41:30;;;;;;;44.28;21.92;;;;;;;16.14;100.00;101499.00;4803110;29;20055;-68
2023/10/08 01:43:58;;;;;;;40.95;21.20;;;;;;;16.09;100.00;101501.81;4801844;30;20051;-68
2023/10/08 01:46:27;;;;;;;43.15;22.92;;;;;;;16.08;100.00;101489.16;4802178;30;20131;-68
2023/10/08 01:49:03;;;;;;;39.38;20.75;;;;;;;16.05;100.00;101487.78;4801716;30;20052;-68
2023/10/08 01:51:39;;;;;;;39.47;19.48;;;;;;;16.06;100.00;101494.94;4803106;29;20419;-68
2023/10/08 01:54:10;;;;;;;35.33;18.52;;;;;;;16.06;100.00;101494.94;4786035;30;20066;-68
2023/10/08 01:56:41;;;;;;;37.65;19.77;;;;;;;16.12;100.00;101490.19;4802294;30;20058;-68
2023/10/08 01:59:13;;;;;;;38.45;19.00;;;;;;;16.08;100.00;101489.94;4802031;30;20062;-68
2023/10/08 02:01:45;;;;;;;35.63;19.13;;;;;;;16.15;100.00;101483.25;4801569;30;20063;-68
2023/10/08 02:04:16;;;;;;;33.58;18.50;;;;;;;16.11;100.00;101486.59;4801204;30;20055;-68
2023/10/08 02:06:45;;;;;;;37.67;19.08;;;;;;;16.03;100.00;101487.25;4802743;30;20514;-68
2023/10/08 02:09:15;;;;;;;35.85;18.30;;;;;;;16.02;100.00;101485.59;4802246;30;20063;-68
2023/10/08 02:11:53;;;;;;;34.28;18.60;;;;;;;16.05;100.00;101485.03;4786295;30;20060;-68
2023/10/08 02:14:22;;;;;;;31.92;18.33;;;;;;;16.07;100.00;101477.25;4802463;30;20047;-68
2023/10/08 02:16:55;;;;;;;31.30;17.52;;;;;;;16.07;100.00;101480.03;4802002;30;20047;-68
2023/10/08 02:19:27;;;;;;;35.10;18.75;;;;;;;16.05;100.00;101485.03;4786319;30;20051;-68
2023/10/08 02:21:57;;;;;;;32.17;17.15;;;;;;;16.07;100.00;101480.03;4802089;30;20070;-68
2023/10/08 02:24:26;;;;;;;34.63;17.58;;;;;;;16.15;100.00;101480.47;4801011;30;20058;-68
2023/10/08 02:26:56;;;;;;;32.20;17.05;;;;;;;16.08;100.00;101481.66;4801199;30;20051;-68
2023/10/08 02:29:26;;;;;;;29.98;16.42;;;;;;;16.04;100.00;101472.31;4785780;30;20055;-68
2023/10/08 02:31:54;;;;;;;31.35;17.83;;;;;;;16.05;100.00;101471.22;4802216;29;20625;-68
2023/10/08 02:34:22;;;;;;;30.65;17.08;;;;;;;16.11;100.00;101467.28;4801972;30;20047;-68
2023/10/08 02:36:50;;;;;;;30.88;16.75;;;;;;;16.06;100.00;101459.06;4801731;30;20082;-68
2023/10/08 02:39:26;;;;;;;29.27;17.27;;;;;;;16.01;100.00;101470.16;4800011;29;20423;-68
2023/10/08 02:41:56;;;;;;;32.70;18.08;;;;;;;15.95;100.00;101460.31;4802447;30;20065;-68
2023/10/08 02:44:24;;;;;;;32.75;17.00;;;;;;;16.00;100.00;101463.00;4801697;30;20063;-68
2023/10/08 02:46:54;;;;;;;29.90;16.80;;;;;;;15.98;100.00;101454.19;4800773;30;20051;-68
2023/10/08 02:49:25;;;;;;;29.27;16.50;;;;;;;15.99;100.00;101458.59;4785376;30;20508;-68
2023/10/08 02:51:54;;;;;;;33.72;18.15;;;;;;;15.95;100.00;101452.03;4801065;30;20035;-68
2023/10/08 02:54:31;;;;;;;31.27;17.63;;;;;;;15.80;100.00;101445.53;4786062;30;20059;-68
2023/10/08 02:57:03;;;;;;;35.13;17.60;;;;;;;15.93;100.00;101440.47;4802143;30;20051;-68
2023/10/08 02:59:42;;;;;;;32.78;17.13;;;;;;;15.78;100.00;101442.25;4800736;30;20063;-68
2023/10/08 03:02:14;;;;;;;35.15;18.92;;;;;;;15.78;100.00;101433.97;4800981;30;20039;-68
2023/10/08 03:04:46;;;;;;;33.58;17.65;;;;;;;15.86;100.00;101435.25;4785374;30;20063;-68
2023/10/08 03:07:21;;;;;;;33.72;17.88;;;;;;;15.81;100.00;101441.69;4800164;30;20514;-68
2023/10/08 03:10:03;;;;;;;32.63;18.48;;;;;;;15.84;100.00;101435.56;4785486;30;20051;-68
2023/10/08 03:12:33;;;;;;;31.20;16.45;;;;;;;15.76;100.00;101433.47;4785573;30;20061;-68
2023/10/08 03:15:28;;;;;;;35.03;18.02;;;;;;;15.75;100.00;101445.63;4800624;30;20062;-68
2023/10/08 03:18:09;;;;;;;27.40;14.95;;;;;;;15.77;100.00;101429.56;4801096;29;20070;-68
2023/10/08 03:20:48;;;;;;;26.30;14.70;;;;;;;15.71;100.00;101433.50;4800098;30;20046;-68
2023/10/08 03:23:23;;;;;;;25.90;14.57;;;;;;;15.70;100.00;101421.63;4800046;30;20079;-68
2023/10/08 03:25:58;;;;;;;25.23;13.88;;;;;;;15.81;100.00;101425.13;4801161;30;20053;-68
2023/10/08 03:28:30;;;;;;;26.25;12.63;;;;;;;15.80;100.00;101431.72;4800729;30;20051;-68
2023/10/08 03:31:14;;;;;;;22.55;12.20;;;;;;;15.75;100.00;101436.50;4785225;30;20062;-68
2023/10/08 03:33:43;;;;;;;;;;;;;;;15.68;100.00;101426.66;4785125;30;20051;-68
2023/10/08 03:36:20;;;;;;;23.38;12.65;;;;;;;15.73;100.00;101423.00;4799948;30;19930;-68
2023/10/08 03:38:51;;;;;;;22.45;13.13;;;;;;;15.87;100.00;101438.84;4799805;30;20078;-68
2023/10/08 03:41:27;;;;;;;25.85;13.63;;;;;;;15.94;100.00;101433.81;4800252;30;20070;-68
2023/10/08 03:44:06;;;;;;;21.88;11.95;;;;;;;15.80;100.00;101423.44;4800946;29;20066;-68
2023/10/08 03:46:39;;;;;;;26.60;13.85;;;;;;;15.70;100.00;101427.16;4801068;29;20071;-68
2023/10/08 03:49:14;;;;;;;25.63;13.27;;;;;;;15.61;100.00;101430.88;4800600;30;20051;-68
2023/10/08 03:51:43;;;;;;;27.27;13.90;;;;;;;15.63;100.00;101434.16;4801851;29;20059;-68
2023/10/08 03:54:17;;;;;;;27.83;13.43;;;;;;;15.57;100.00;101436.97;4803967;30;20054;-68
2023/10/08 03:56:48;;;;;;;21.58;13.13;;;;;;;15.67;100.00;101429.69;4804415;29;20052;-68
2023/10/08 04:04:59;;;;;;;22.88;13.50;;;;;;;15.23;100.00;101415.81;4780272;30;20055;-68
2023/10/08 04:12:44;;;;;;;27.00;14.60;;;;;;;15.54;100.00;101409.16;4784212;30;20065;-68
2023/10/08 04:15:16;;;;;;;31.15;15.48;;;;;;;15.70;100.00;101424.41;4799643;30;20063;-68
2023/10/08 04:17:45;;;;;;;30.65;16.17;;;;;;;15.42;100.00;101421.44;4799618;30;20063;-68
2023/10/08 04:20:33;;;;;;;27.45;15.32;;;;;;;15.26;100.00;101412.47;4799670;30;20058;-68
2023/10/08 04:23:13;;;;;;;29.13;15.05;;;;;;;15.24;100.00;101406.44;4799935;30;20043;-68
2023/10/08 04:25:42;;;;;;;32.70;16.60;;;;;;;15.22;100.00;101410.59;4800185;30;20039;-68
2023/10/08 04:28:17;;;;;;;35.85;16.63;;;;;;;15.14;100.00;101412.88;4798992;30;20039;-68
2023/10/08 04:30:47;;;;;;;29.25;15.52;;;;;;;15.10;100.00;101413.75;4800457;30;20055;-68
2023/10/08 04:33:15;;;;;;;34.60;16.60;;;;;;;15.09;100.00;101412.09;4799736;30;20054;-68
2023/10/08 04:35:56;;;;;;;33.90;18.35;;;;;;;15.18;100.00;101402.91;4799630;30;20059;-69
2023/10/08 04:38:26;;;;;;;31.02;16.70;;;;;;;15.27;100.00;101405.88;4798984;30;20051;-69
2023/10/08 04:40:55;;;;;;;37.72;17.58;;;;;;;15.41;100.00;101400.44;4799048;30;20169;-69
2023/10/08 04:43:30;;;;;;;30.17;16.42;;;;;;;15.30;100.00;101421.00;4799527;30;20051;-69
2023/10/08 04:46:04;;;;;;;32.10;16.63;;;;;;;15.20;100.00;101415.59;4799649;30;20052;-69
2023/10/08 04:48:33;;;;;;;49.42;19.92;;;;;;;15.22;100.00;101405.91;4799821;30;20061;-68
2023/10/08 04:51:02;;;;;;;42.00;20.63;;;;;;;15.23;100.00;101415.81;4799746;30;20043;-68
2023/10/08 04:53:37;;;;;;;37.13;19.77;;;;;;;15.30;100.00;101413.53;4800335;30;20040;-69
2023/10/08 04:56:13;;;;;;;33.20;17.65;;;;;;;15.45;100.00;101411.75;4799219;30;20055;-68
2023/10/08 04:58:41;;;;;;;36.17;17.95;;;;;;;15.50;100.00;101424.66;4799800;30;20050;-68
2023/10/08 05:01:20;;;;;;;34.25;17.55;;;;;;;15.52;100.00;101417.72;4799333;30;20044;-69
2023/10/08 05:07:17;;;;;;;38.85;18.95;;;;;;;15.49;100.00;101421.06;4803424;30;20126;-69
2023/10/08 05:17:10;;;;;;;33.17;18.10;;;;;;;15.14;100.00;101426.66;4787380;30;20054;-71
2023/10/08 05:22:29;;;;;;;31.50;16.08;;;;;;;15.26;100.00;101426.25;4800148;30;20488;-92
2023/10/08 05:33:11;;;;;;;32.05;16.95;;;;;;;16.93;100.00;101413.84;4768619;30;20052;-90
2023/10/08 06:07:56;;;;;;;34.58;18.20;;;;;;;17.51;100.00;101449.63;4772190;30;20059;-86
2023/10/08 06:13:29;;;;;;;35.35;18.13;;;;;;;17.51;100.00;101444.94;4785737;30;20047;-86
2023/10/08 06:18:29;;;;;;;33.95;17.92;;;;;;;17.55;100.00;101447.91;4785861;30;20059;-86
2023/10/08 06:21:01;;;;;;;31.02;17.13;;;;;;;17.75;100.00;101462.44;4771886;30;20063;-86
2023/10/08 06:23:35;;;;;;;33.78;17.08;;;;;;;17.75;100.00;101452.22;4785723;30;20063;-86
2023/10/08 06:28:41;;;;;;;35.05;17.10;;;;;;;17.75;100.00;101454.97;4768026;30;20051;-87
2023/10/08 06:31:16;;;;;;;35.72;17.58;;;;;;;17.99;100.00;101467.78;4753557;30;20056;-84
2023/10/08 06:33:44;;;;;;;35.42;15.40;;;;;;;18.28;100.00;101472.16;4756851;30;20056;-85
2023/10/08 06:38:48;;;;;;;32.25;15.48;;;;;;;18.18;100.00;101464.91;4787285;30;20055;-87
2023/10/08 06:41:24;;;;;;;26.52;13.23;;;;;;;18.29;99.39;101459.16;4777588;30;20056;-85
2023/10/08 06:44:15;;;;;;;26.48;13.70;;;;;;;18.39;98.89;101462.50;4763825;30;20043;-85
2023/10/08 06:46:45;;;;;;;25.92;12.27;;;;;;;18.44;98.21;101464.34;4772592;29;20069;-85
2023/10/08 06:49:13;;;;;;;23.05;12.43;;;;;;;18.52;97.54;101471.09;4789302;29;20507;-85
2023/10/08 06:51:43;;;;;;;20.13;11.63;;;;;;;18.69;96.89;101484.28;4776323;30;20447;-86
2023/10/08 06:54:17;;;;;;;25.13;12.45;;;;;;;18.69;97.62;101480.69;4770812;30;20054;-86
2023/10/08 06:56:51;;;;;;;24.23;13.23;;;;;;;18.82;97.28;101484.56;4786597;30;20051;-85
2023/10/08 06:59:23;;;;;;;26.13;14.35;;;;;;;18.82;100.00;101490.09;4781755;30;20384;-86
2023/10/08 07:01:52;;;;;;;29.50;15.18;;;;;;;18.88;99.10;101486.06;4755002;30;20063;-86
2023/10/08 07:04:21;;;;;;;29.05;14.77;;;;;;;18.91;99.58;101488.19;4778433;30;20060;-85
2023/10/08 07:06:51;;;;;;;25.80;13.77;;;;;;;18.93;99.80;101488.72;4783389;30;20034;-86
2023/10/08 07:09:22;;;;;;;26.13;13.55;;;;;;;19.04;98.28;101492.06;4754414;30;20074;-85
2023/10/08 07:11:54;;;;;;;27.13;13.02;;;;;;;19.06;97.44;101479.53;4769954;30;20078;-86
2023/10/08 07:14:28;;;;;;;24.33;12.27;;;;;;;19.18;95.66;101487.28;4755374;30;20194;-85
2023/10/08 07:16:59;;;;;;;21.67;10.73;;;;;;;19.16;92.74;101483.19;4769944;30;20206;-85
2023/10/08 07:19:39;;;;;;;18.77;10.48;;;;;;;19.23;93.79;101479.94;4768987;30;20056;-84
2023/10/08 07:22:28;;;;;;;18.80;10.45;;;;;;;19.25;90.59;101484.06;4779153;30;20062;-85
2023/10/08 07:24:57;;;;;;;18.95;9.77;;;;;;;19.37;90.58;101485.41;4770342;29;20073;-84
2023/10/08 07:27:31;;;;;;;21.60;9.93;;;;;;;19.37;88.00;101485.41;4755177;30;20078;-85
2023/10/08 07:30:10;;;;;;;19.73;9.90;;;;;;;19.50;89.15;101478.94;4784473;30;20066;-84
2023/10/08 07:32:39;;;;;;;17.27;8.95;;;;;;;19.56;87.71;101486.00;4767253;30;20068;-85
2023/10/08 07:35:25;;;;;;;16.85;8.27;;;;;;;19.63;86.15;101484.72;4784237;30;20055;-86
2023/10/08 07:37:54;;;;;;;16.88;8.77;;;;;;;19.74;85.46;101494.41;4770564;30;20055;-87
2023/10/08 07:40:28;;;;;;;17.77;8.68;;;;;;;19.86;84.27;101491.03;4784973;30;20055;-85
2023/10/08 07:42:57;;;;;;;;;;;;;;;19.93;85.78;101485.00;4783781;30;20075;-85
2023/10/08 07:45:24;;;;;;;23.83;12.20;;;;;;;19.95;87.94;101485.50;4799420;30;19936;-88
2023/10/08 07:47:55;;;;;;;34.05;17.23;;;;;;;19.94;89.79;101486.66;4769764;30;20069;-86
2023/10/08 07:50:24;;;;;;;29.38;16.25;;;;;;;19.94;92.74;101498.56;4756892;30;20045;-83
2023/10/08 07:52:52;;;;;;;26.75;14.18;;;;;;;19.92;90.95;101491.69;4754918;30;20071;-82
2023/10/08 07:55:20;;;;;;;29.60;15.48;;;;;;;19.91;91.37;101498.41;4769580;30;20047;-82
2023/10/08 07:57:48;;;;;;;27.38;14.88;;;;;;;20.06;91.84;101506.31;4769584;30;20051;-82
2023/10/08 08:00:22;;;;;;;30.95;16.83;;;;;;;20.06;91.86;101495.22;4769414;30;20058;-82
2023/10/08 08:02:56;;;;;;;30.92;15.65;;;;;;;20.11;91.26;101494.25;4755585;30;20055;-82
2023/10/08 08:05:25;;;;;;;33.65;15.57;;;;;;;20.13;92.47;101487.22;4769556;30;20063;-83
2023/10/08 08:07:56;;;;;;;29.05;15.60;;;;;;;20.24;89.77;101476.59;4769980;30;20055;-82
2023/10/08 08:10:25;;;;;;;28.95;15.15;;;;;;;20.31;88.89;101489.19;4768253;30;20066;-82
2023/10/08 08:12:56;;;;;;;27.73;14.52;;;;;;;20.16;90.19;101490.47;4769613;30;20055;-82
2023/10/08 08:15:27;;;;;;;26.23;14.15;;;;;;;20.29;88.84;101492.31;4756065;30;20059;-82
2023/10/08 08:17:55;;;;;;;28.88;14.57;;;;;;;20.41;88.70;101492.50;4769368;30;20419;-82
2023/10/08 08:20:34;;;;;;;25.27;13.57;;;;;;;20.46;87.98;101494.31;4799063;30;20051;-82
2023/10/08 08:23:07;;;;;;;29.77;14.07;;;;;;;20.52;87.27;101493.00;4769357;30;20047;-82
2023/10/08 08:28:28;;;;;;;30.67;15.88;;;;;;;20.71;86.86;101494.63;4765653;30;20039;-82
2023/10/08 08:31:04;;;;;;;25.70;14.13;;;;;;;20.79;86.99;101495.78;4769334;30;20492;-83
2023/10/08 08:33:52;;;;;;;23.73;13.07;;;;;;;20.91;85.04;101493.19;4769029;30;20082;-83
2023/10/08 08:36:21;;;;;;;27.90;14.02;;;;;;;21.00;84.70;101503.47;4768795;29;20062;-83
2023/10/08 08:38:50;;;;;;;24.30;13.63;;;;;;;21.07;83.47;101499.06;4768867;30;20070;-82
2023/10/08 08:41:20;;;;;;;24.38;13.50;;;;;;;21.17;83.36;101497.09;4768882;30;20047;-83
2023/10/08 08:43:59;;;;;;;25.75;14.73;;;;;;;21.24;83.12;101497.38;4799916;30;20047;-83
2023/10/08 08:46:37;;;;;;;26.63;14.63;;;;;;;21.34;81.88;101499.00;4800101;30;20051;-82
2023/10/08 08:49:12;;;;;;;29.05;13.85;;;;;;;21.39;82.13;101498.81;4799597;30;20040;-82
2023/10/08 08:51:42;;;;;;;25.95;13.38;;;;;;;21.39;81.20;101493.25;4783850;30;20510;-82
2023/10/08 08:54:11;;;;;;;31.05;13.68;;;;;;;21.42;81.41;101487.03;4800296;30;20388;-82
2023/10/08 08:56:43;;;;;;;27.38;13.57;;;;;;;21.48;80.05;101494.06;4799786;30;20053;-83
2023/10/08 08:59:12;;;;;;;24.77;13.13;;;;;;;21.59;79.69;101482.53;4799705;30;20490;-82
2023/10/08 09:01:41;;;;;;;23.90;12.35;;;;;;;21.65;80.44;101489.56;4799175;30;20056;-82
2023/10/08 09:04:09;;;;;;;24.77;12.23;;;;;;;21.71;78.40;101507.75;4799456;30;20067;-82
2023/10/08 09:06:38;;;;;;;19.77;10.68;;;;;;;21.79;77.68;101502.50;4798723;30;20061;-82
2023/10/08 09:09:22;;;;;;;21.52;11.23;;;;;;;21.80;78.00;101506.91;4799725;30;20134;-82
2023/10/08 09:11:52;;;;;;;18.95;10.70;;;;;;;21.82;77.37;101497.06;4799833;30;20055;-82
2023/10/08 09:14:29;;;;;;;21.83;11.48;;;;;;;21.96;75.73;101498.78;4799944;30;20048;-83
2023/10/08 09:16:59;;;;;;;26.67;11.23;;;;;;;22.07;76.34;101504.78;4799572;30;20055;-82
2023/10/08 09:19:27;;;;;;;22.98;11.80;;;;;;;22.23;76.28;101503.06;4799219;30;20055;-83
2023/10/08 09:22:08;;;;;;;21.63;11.50;;;;;;;22.27;75.55;101504.03;4799517;30;20057;-82
2023/10/08 09:24:39;;;;;;;24.17;11.43;;;;;;;22.26;74.89;101496.81;4799600;30;20043;-83
2023/10/08 09:27:12;;;;;;;22.70;11.57;;;;;;;22.48;75.37;101500.41;4799302;30;20031;-83
2023/10/08 09:29:41;;;;;;;26.27;13.40;;;;;;;22.54;75.43;101498.28;4799518;30;20062;-82
2023/10/08 09:32:13;;;;;;;24.35;13.05;;;;;;;22.58;75.10;101501.22;4799353;30;20061;-83
2023/10/08 09:34:43;;;;;;;26.85;12.40;;;;;;;22.63;74.89;101506.59;4799244;30;20064;-82
2023/10/08 09:37:11;;;;;;;24.38;12.43;;;;;;;22.70;74.08;101492.91;4798731;30;20134;-83
2023/10/08 09:39:42;;;;;;;20.92;11.43;;;;;;;22.76;74.30;101494.34;4799037;30;20047;-83
2023/10/08 09:42:12;;;;;;;20.55;11.20;;;;;;;22.91;73.26;101492.06;4799348;30;20047;-82
2023/10/08 09:44:42;;;;;;;19.50;10.55;;;;;;;23.04;71.60;101499.34;4799607;30;20058;-82
2023/10/08 09:47:14;;;;;;;20.05;10.60;;;;;;;23.17;71.44;101502.16;4798870;30;20055;-83
2023/10/08 09:50:00;;;;;;;21.92;10.85;;;;;;;23.12;72.70;101494.00;4800772;29;20035;-83
2023/10/08 09:52:48;;;;;;;17.02;9.68;;;;;;;23.18;71.73;101493.41;4802155;30;20035;-83
2023/10/08 09:55:18;;;;;;;19.98;11.00;;;;;;;23.31;72.33;101491.50;4802616;30;20066;-83
2023/10/08 09:57:46;;;;;;;20.77;11.48;;;;;;;23.35;70.53;101492.47;4801870;30;20019;-82
2023/10/08 10:00:18;;;;;;;24.83;10.93;;;;;;;23.40;71.32;101490.63;4800694;30;20532;-83
2023/10/08 10:02:46;;;;;;;21.35;11.55;;;;;;;23.45;71.52;101493.16;4801330;29;20415;-82
2023/10/08 10:05:21;;;;;;;20.45;10.75;;;;;;;23.51;70.98;101483.41;4805614;29;20054;-83
2023/10/08 10:07:55;;;;;;;19.52;10.82;;;;;;;23.58;70.90;101486.44;4804287;29;20051;-84
2023/10/08 10:10:33;;;;;;;;;;;;;;;23.64;69.35;101489.81;4802062;30;20047;-84
2023/10/08 10:13:03;;;;;;;19.83;10.52;;;;;;;23.70;69.78;101484.84;4802015;30;19936;-83
2023/10/08 10:15:34;;;;;;;20.95;11.10;;;;;;;23.76;68.02;101475.06;4785031;30;20058;-83
2023/10/08 10:18:13;;;;;;;21.15;11.13;;;;;;;23.92;68.94;101475.16;4801584;30;20027;-83
2023/10/08 10:20:50;;;;;;;21.88;10.95;;;;;;;24.06;67.83;101480.41;4801004;30;20059;-84
2023/10/08 10:23:45;;;;;;;17.52;10.38;;;;;;;24.21;67.31;101475.25;4801184;30;20063;-83
2023/10/08 10:26:33;;;;;;;21.63;10.68;;;;;;;24.19;66.02;101483.19;4801249;30;20043;-83
2023/10/08 10:29:14;;;;;;;17.60;9.40;;;;;;;24.44;66.88;101478.38;4785225;30;20065;-83
2023/10/08 10:31:56;;;;;;;16.42;10.07;;;;;;;24.43;65.30;101469.16;4801745;30;20051;-84
2023/10/08 10:34:30;;;;;;;16.70;9.02;;;;;;;24.38;64.53;101461.00;4801563;30;20055;-83
2023/10/08 10:37:02;;;;;;;41.38;21.58;;;;;;;24.43;64.66;101460.75;4801246;30;20051;-83
2023/10/08 10:39:33;;;;;;;18.08;9.48;;;;;;;24.39;63.60;101443.06;4801497;30;20069;-83
2023/10/08 10:42:03;;;;;;;16.40;8.90;;;;;;;24.58;65.10;101446.38;4801420;30;20057;-83
2023/10/08 10:44:33;;;;;;;14.85;7.60;;;;;;;24.70;64.33;101447.13;4801561;30;20058;-83
2023/10/08 10:55:31;;;;;;;9.05;4.78;;;;;;;25.07;54.60;101439.75;4801171;30;19920;-83
2023/10/08 10:58:14;;;;;;;9.38;5.50;;;;;;;25.34;53.35;101442.84;4801149;30;20050;-83
2023/10/08 11:03:17;;;;;;;27.42;15.68;;;;;;;25.57;53.29;101422.63;4801011;30;20066;-83
2023/10/08 11:05:59;;;;;;;14.38;6.75;;;;;;;25.60;52.16;101413.47;4784864;30;20059;-83
2023/10/08 11:08:34;;;;;;;15.25;7.65;;;;;;;25.77;51.22;101421.47;4800848;30;20059;-83
2023/10/08 11:11:05;;;;;;;12.35;7.28;;;;;;;25.87;50.21;101417.31;4800971;30;20062;-83
2023/10/08 11:13:37;;;;;;;8.48;4.45;;;;;;;25.96;50.71;101411.50;4801256;30;20058;-82
2023/10/08 11:16:08;;;;;;;8.43;3.80;;;;;;;25.98;50.20;101411.13;4800559;30;20047;-84
2023/10/08 11:18:46;;;;;;;8.13;3.13;;;;;;;25.75;49.79;101411.81;4800015;29;20055;-82
2023/10/08 11:21:22;;;;;;;17.27;8.63;;;;;;;26.02;49.91;101401.63;4800353;30;20051;-82
2023/10/08 11:23:59;;;;;;;9.00;5.47;;;;;;;26.28;48.22;101397.41;4801482;29;20054;-82
2023/10/08 11:26:38;;;;;;;8.18;4.60;;;;;;;26.41;49.91;101392.44;4800521;30;20048;-83
2023/10/08 11:29:18;;;;;;;27.30;13.07;;;;;;;26.50;49.98;101385.78;4800875;30;20051;-83
2023/10/08 11:31:46;;;;;;;13.35;6.70;;;;;;;26.66;49.81;101383.72;4785762;30;20063;-83
2023/10/08 11:34:14;;;;;;;23.75;9.68;;;;;;;26.78;49.52;101387.53;4800288;30;20058;-83
2023/10/08 11:36:52;;;;;;;34.78;18.98;;;;;;;26.88;49.17;101381.28;4800768;29;20059;-83
2023/10/08 11:39:22;;;;;;;10.95;5.28;;;;;;;26.90;48.82;101384.53;4799783;30;20047;-83
2023/10/08 11:42:06;;;;;;;15.65;6.53;;;;;;;26.93;48.10;101368.97;4801026;30;20047;-83
2023/10/08 11:44:35;;;;;;;7.25;4.35;;;;;;;27.12;48.56;101376.50;4801267;30;20043;-83
2023/10/08 11:47:13;;;;;;;7.45;4.47;;;;;;;27.26;47.85;101375.94;4791884;30;20046;-83
2023/10/08 11:49:53;;;;;;;11.45;6.82;;;;;;;27.42;47.68;101377.78;4791360;30;20055;-83
2023/10/08 11:52:24;;;;;;;7.40;4.10;;;;;;;27.49;48.02;101361.84;4793232;30;20055;-82
2023/10/08 11:54:53;;;;;;;9.30;4.32;;;;;;;27.32;48.65;101368.00;4792860;30;20059;-83
2023/10/08 11:57:25;;;;;;;8.82;3.45;;;;;;;27.30;48.76;101361.94;4792492;30;20055;-84
2023/10/08 11:59:54;;;;;;;7.95;4.25;;;;;;;27.32;49.15;101362.38;4793003;30;20059;-83
2023/10/08 12:02:23;;;;;;;6.18;3.33;;;;;;;27.24;49.58;101356.63;4791100;30;20051;-83
2023/10/08 12:04:51;;;;;;;8.82;3.53;;;;;;;27.19;50.35;101344.91;4792790;30;20055;-83
2023/10/08 12:07:20;;;;;;;10.00;4.55;;;;;;;27.32;48.90;101340.69;4792494;30;20070;-83
2023/10/08 12:09:49;;;;;;;8.68;3.33;;;;;;;27.50;49.35;101349.41;4791576;30;20525;-83
2023/10/08 12:12:22;;;;;;;9.38;3.33;;;;;;;27.67;48.31;101349.28;4791042;29;20051;-83
2023/10/08 12:14:54;;;;;;;6.25;3.45;;;;;;;27.78;48.04;101347.41;4792787;30;20051;-82
2023/10/08 12:17:31;;;;;;;11.25;3.25;;;;;;;27.93;46.75;101350.41;4790849;30;20055;-82
2023/10/08 12:20:12;;;;;;;7.45;3.38;;;;;;;27.96;46.22;101344.81;4791729;30;20066;-83
2023/10/08 12:22:40;;;;;;;6.60;3.03;;;;;;;27.94;47.05;101346.44;4792396;30;20060;-83
2023/10/08 12:25:08;;;;;;;7.82;4.00;;;;;;;27.97;45.71;101335.22;4791850;30;20063;-83
2023/10/08 12:27:38;;;;;;;9.20;3.10;;;;;;;28.09;44.54;101331.31;4790919;30;20055;-81
2023/10/08 12:30:10;;;;;;;7.00;3.85;;;;;;;28.17;45.01;101326.59;4792147;30;20044;-83
2023/10/08 12:32:42;;;;;;;9.07;3.90;;;;;;;28.31;44.58;101320.38;4791696;30;20050;-84
2023/10/08 12:35:12;;;;;;;8.32;3.72;;;;;;;28.10;45.47;101321.69;4791812;30;20052;-84
2023/10/08 12:37:42;;;;;;;11.48;4.72;;;;;;;28.21;44.99;101332.25;4789668;30;20121;-82
2023/10/08 12:40:22;;;;;;;7.00;4.10;;;;;;;28.03;44.93;101328.06;4791529;30;20047;-83
2023/10/08 12:42:54;;;;;;;13.57;4.80;;;;;;;28.26;44.80;101332.75;4792264;30;20063;-82
2023/10/08 12:45:22;;;;;;;7.80;4.50;;;;;;;28.20;44.89;101328.63;4791930;30;20062;-83
2023/10/08 12:47:51;;;;;;;9.75;4.07;;;;;;;28.25;44.54;101319.09;4791590;30;20042;-83
2023/10/08 12:50:42;;;;;;;9.55;4.05;;;;;;;28.21;44.15;101319.03;4792575;30;20051;-82
2023/10/08 12:53:11;;;;;;;8.23;3.97;;;;;;;28.43;43.02;101322.91;4791785;30;20062;-83
2023/10/08 12:55:39;;;;;;;9.63;4.18;;;;;;;28.51;42.92;101311.72;4790893;30;20062;-83
2023/10/08 12:58:10;;;;;;;8.50;3.90;;;;;;;28.48;43.51;101316.09;4791109;30;20050;-83
2023/10/08 13:00:38;;;;;;;13.00;4.72;;;;;;;28.40;44.04;101303.97;4792178;30;20070;-78
2023/10/08 13:03:15;;;;;;;13.05;4.32;;;;;;;28.43;45.21;101308.81;4791788;30;20050;-79
2023/10/08 13:05:44;;;;;;;8.93;4.10;;;;;;;28.49;44.69;101309.28;4790761;30;20058;-79